Etusivu
METAR-TAF:

METAR-TAF

Lentoasemat :

Presque_Isle_County_Airport

Rogers City, Michigan, Yhdysvallat

Leveyspiiri: 45-24-25N, Pituuspiiri: 083-48-46W, korkeus merenpinnasta: 204 m

Tämänhetkinen sää

Tämä raportti tehtiin 22 minuuttia sitten, kello 04.16 UTC
Tuuli 3 kn pohjoisen/luoteesta
Lämpötila -3°C
Kosteus 74%
Ilmanpaine 1021 hPa
Näkyvyys: 16.1 km
Pilvistä 1900 ft:n korkeudessa

METAR: KPZQ 290416Z AUTO 33003KT 10SM OVC019 M03/M07 A3014 RMK AO2 T10321067

Aika: 23:38 (04:38 UTC)


TAF: puuttuu

Säähavainnot ja -ennusteet yli 4000 lentoasemalta (METAR- ja TAF-raportit).

Käytössä olevat sääasemat on merkitty karttaan keltaisilla ja punaisilla pisteillä.

Aseta hiiri pisteen päälle nähdäksesi sääaseman nimen.

Klikkaa sitten nähdäksesi säähavainnot ja -ennusteet.

Kartan vaihtaminen: klikkaa mustalla rastilla varustettuja vihreitä pisteitä, niin voit zoomata sisään; viivalla varustettua vihreää pistettä, niin voit zoomata ulos tai vihreitä nuolia, niin pääset viereisille kartoille.


METAR-TAF: